Montesano, Washington
Current Conditions -  °F | °C
As of 8:15 PM on Tuesday 21 Oct 2014 (Local Time) from KHQM Reporting Station
Haze Haze  
Wind Chill: 57°   Ceiling: 2000
Heat Index: 57°   Visibility: 6mi
Dew Point: 54°   Wind: 23mph
Humidity: 89%   Direction: 130°SE
Pressure: 29.78"   Gusts: 35mph
Location:  46.98°N, 123.6°W
Report Text: KHQM 220315Z AUTO 13020G30KT 6SM BR SCT012 BKN020 OVC043 14/12 A2978 RMK AO2 PK WND 14030/0306 RAE14 P0002 T01390122
Loading
Personal Weather Stations






























Interactive Weather Map
Tropical Storm Tracking
New forecast layout! Learn more

10-Day Weather Forecast

Advertisements
Track Severe Weather on mobile